Terminal Aerodrome Forecast
Issued by NWS Charleston, WV

Current Version | Previous Version | Graphics & Text | Print | Product List | Glossary On
Versions: 1 2 3 4 5 6 7 8 9 10 11 12 13 14 15 16 17 18 19 20 21 22 23 24 25 26 27 28
000
FTUS41 KRLX 301738
TAFCRW
TAF
KCRW 301738Z 3018/0118 24009KT 6SM -TSRA BKN006 BKN015CB
      TEMPO 3018/3020 2SM SHRA SCT006
     FM302000 VRB03KT 4SM SHRA VCTS OVC015CB
     FM010400 VRB02KT 3SM BR SCT015
     FM010700 VRB02KT 1SM BR SCT001=

USA.gov is the U.S. government's official web portal to all federal, state and local government web resources and services.